createdAt,value
2017-08-18T01:33:55.534Z,2.90
2017-08-18T01:36:24.936Z,2.80
2017-08-18T01:38:53.276Z,3.53
2017-08-18T01:41:31.014Z,7.40
2017-08-18T01:47:00.213Z,2.20
2017-08-18T01:49:45.576Z,3.03
2017-08-18T01:52:13.909Z,2.50
2017-08-18T01:54:42.256Z,2.70
2017-08-18T01:57:10.688Z,4.20
2017-08-18T01:59:39.040Z,3.73
2017-08-18T02:02:07.425Z,3.50
2017-08-18T02:04:36.550Z,3.13
2017-08-18T02:07:05.660Z,2.63
2017-08-18T02:09:34.725Z,2.47
2017-08-18T02:12:03.013Z,3.20
2017-08-18T02:14:31.340Z,2.90
2017-08-18T02:17:06.208Z,2.50
2017-08-18T02:19:34.516Z,3.57
2017-08-18T02:22:02.964Z,2.77
2017-08-18T02:24:32.068Z,3.47
2017-08-18T02:27:00.360Z,3.50
2017-08-18T02:29:28.652Z,2.50
2017-08-18T02:31:56.977Z,2.60
2017-08-18T02:34:25.274Z,4.37
2017-08-18T02:36:53.577Z,3.77
2017-08-18T02:39:21.913Z,3.60
2017-08-18T02:41:51.084Z,12.47
2017-08-18T02:44:19.409Z,4.17
2017-08-18T02:46:48.472Z,6.60
2017-08-18T02:49:16.796Z,3.60
2017-08-18T02:51:45.090Z,4.13
2017-08-18T02:54:14.157Z,5.47
2017-08-18T02:56:42.578Z,4.57
2017-08-18T02:59:10.903Z,4.03
2017-08-18T03:01:39.202Z,4.17
2017-08-18T03:04:07.540Z,4.57
2017-08-18T03:06:35.949Z,3.70
2017-08-18T03:09:05.021Z,9.43
2017-08-18T03:11:33.440Z,12.50
2017-08-18T03:14:02.552Z,3.40
2017-08-18T03:16:31.643Z,4.03
2017-08-18T03:18:59.953Z,4.47
2017-08-18T03:21:28.285Z,4.90
2017-08-18T03:23:56.594Z,3.97
2017-08-18T03:26:24.900Z,4.90
2017-08-18T03:28:53.246Z,4.20
2017-08-18T03:31:21.590Z,3.07
2017-08-18T03:33:49.919Z,3.77
2017-08-18T03:36:18.209Z,5.70
2017-08-18T03:38:46.769Z,8.13
2017-08-18T03:41:15.842Z,3.90
2017-08-18T03:43:44.266Z,3.87
2017-08-18T03:46:12.593Z,3.33
2017-08-18T03:48:40.937Z,3.53
2017-08-18T03:51:09.279Z,4.23
2017-08-18T03:53:37.584Z,3.53
2017-08-18T03:56:05.905Z,3.93
2017-08-18T03:58:34.195Z,4.30
2017-08-18T04:01:02.529Z,3.20
2017-08-18T04:03:30.833Z,3.63
2017-08-18T04:05:59.116Z,3.63
2017-08-18T04:08:27.569Z,5.23
2017-08-18T04:10:55.943Z,5.37
2017-08-18T04:13:24.282Z,3.10
2017-08-18T04:15:52.594Z,3.33
2017-08-18T04:18:20.931Z,3.60
2017-08-18T04:20:49.997Z,3.73
2017-08-18T04:23:18.297Z,3.20
2017-08-18T04:25:46.646Z,3.47
2017-08-18T04:28:14.944Z,4.93
2017-08-18T04:30:43.393Z,5.33
2017-08-18T04:33:11.721Z,4.40
2017-08-18T04:35:40.017Z,4.27
2017-08-18T04:38:08.345Z,3.67
2017-08-18T04:40:41.507Z,6.50
2017-08-18T04:43:09.833Z,4.03
2017-08-18T04:45:38.151Z,3.83
2017-08-18T04:48:06.474Z,4.33
2017-08-18T04:50:34.792Z,4.23
2017-08-18T04:53:03.886Z,5.10
2017-08-18T04:55:32.984Z,6.20
2017-08-18T04:58:01.324Z,6.53
2017-08-18T05:00:29.615Z,7.77
2017-08-18T05:02:57.925Z,8.93
2017-08-18T05:05:26.232Z,6.43
2017-08-18T05:07:54.524Z,6.60
2017-08-18T05:10:22.917Z,9.47
2017-08-18T05:12:51.248Z,9.30
2017-08-18T05:15:19.551Z,6.03
2017-08-18T05:17:47.855Z,13.77
2017-08-18T05:20:16.184Z,10.30
2017-08-18T05:22:44.476Z,15.30
2017-08-18T05:25:13.572Z,13.60
2017-08-18T05:27:41.959Z,14.60
2017-08-18T05:30:10.367Z,10.10
2017-08-18T05:32:38.706Z,13.53
2017-08-18T05:35:07.055Z,16.40
2017-08-18T05:37:35.420Z,13.63
2017-08-18T05:40:03.723Z,12.60
2017-08-18T05:42:32.819Z,9.20
2017-08-18T05:45:01.120Z,11.07
2017-08-18T05:47:29.532Z,7.90
2017-08-18T05:49:57.847Z,7.63
2017-08-18T05:52:26.366Z,10.07
2017-08-18T05:54:54.872Z,6.50
2017-08-18T05:57:23.179Z,7.23
2017-08-18T05:59:52.250Z,8.00
2017-08-18T06:02:20.693Z,6.73
2017-08-18T06:04:49.011Z,8.87
2017-08-18T06:07:17.299Z,8.60
2017-08-18T06:09:45.632Z,10.90
2017-08-18T06:12:14.028Z,9.00
2017-08-18T06:14:42.453Z,10.03
2017-08-18T06:17:10.784Z,8.93
2017-08-18T06:19:39.144Z,10.03
2017-08-18T06:22:07.492Z,8.47
2017-08-18T06:24:35.845Z,5.97
2017-08-18T06:27:04.139Z,5.47
2017-08-18T06:29:32.438Z,4.30
2017-08-18T06:32:00.757Z,2.47
2017-08-18T06:34:29.066Z,2.87
2017-08-18T06:36:57.385Z,2.70
2017-08-18T06:39:25.672Z,2.57
2017-08-18T06:41:54.051Z,2.07
2017-08-18T06:44:22.371Z,2.20
2017-08-18T06:46:50.689Z,2.57
2017-08-18T06:49:19.091Z,1.73
2017-08-18T06:51:48.831Z,1.80
2017-08-18T06:54:18.088Z,1.73
2017-08-18T06:56:47.512Z,1.77
2017-08-18T06:59:15.800Z,2.40
2017-08-18T07:01:44.116Z,2.20
2017-08-18T07:04:12.405Z,2.30
2017-08-18T07:06:40.748Z,1.90
2017-08-18T07:09:09.060Z,2.80
2017-08-18T07:11:37.381Z,1.90
2017-08-18T07:14:05.689Z,2.23
2017-08-18T07:16:34.021Z,2.00
2017-08-18T07:19:02.309Z,2.17
2017-08-18T07:21:30.597Z,2.73
2017-08-18T07:23:58.916Z,2.20
2017-08-18T07:26:28.008Z,2.50
2017-08-18T07:28:56.351Z,2.00
2017-08-18T07:31:24.688Z,1.30
2017-08-18T07:33:53.024Z,0.90
2017-08-18T07:36:21.357Z,0.60
2017-08-18T07:38:49.666Z,0.83
2017-08-18T07:41:17.993Z,0.50
2017-08-18T07:43:46.278Z,0.50
2017-08-18T07:46:14.572Z,0.50
2017-08-18T07:48:42.911Z,0.60
2017-08-18T07:51:11.216Z,0.50
2017-08-18T07:53:39.529Z,0.50
2017-08-18T07:56:07.850Z,0.50
2017-08-18T07:58:36.150Z,0.60
2017-08-18T08:01:04.647Z,0.57
2017-08-18T08:03:32.944Z,3.23
2017-08-18T08:06:01.235Z,0.60
2017-08-18T08:08:29.558Z,0.70
2017-08-18T08:10:57.863Z,0.73
2017-08-18T08:13:26.190Z,0.50
2017-08-18T08:15:54.670Z,0.70
2017-08-18T08:18:22.969Z,0.70
2017-08-18T08:20:51.309Z,0.60
2017-08-18T08:23:19.712Z,0.60
2017-08-18T08:25:48.011Z,1.53
2017-08-18T08:28:16.299Z,1.10
2017-08-18T08:30:44.628Z,0.80
2017-08-18T08:33:12.928Z,0.80
2017-08-18T08:35:41.223Z,0.80
2017-08-18T08:38:09.551Z,0.70
2017-08-18T08:40:37.841Z,0.70
2017-08-18T08:43:06.194Z,2.93
2017-08-18T08:45:34.521Z,8.90
2017-08-18T08:48:02.811Z,1.10
2017-08-18T08:50:31.176Z,1.10
2017-08-18T08:52:59.653Z,1.10
2017-08-18T08:55:27.978Z,2.93
2017-08-18T08:57:56.298Z,1.93
2017-08-18T09:00:24.649Z,0.80
2017-08-18T09:02:52.939Z,1.47
2017-08-18T09:05:21.233Z,0.80
2017-08-18T09:07:49.565Z,0.70
2017-08-18T09:10:17.878Z,0.70
2017-08-18T09:12:46.217Z,1.80
2017-08-18T09:15:14.516Z,0.60
2017-08-18T09:17:42.850Z,1.27
2017-08-18T09:20:11.176Z,0.53
2017-08-18T09:22:39.520Z,0.70
2017-08-18T09:25:07.869Z,0.53
2017-08-18T09:27:36.160Z,0.60
2017-08-18T09:30:04.464Z,0.60
2017-08-18T09:32:33.022Z,0.40
2017-08-18T09:35:01.380Z,0.50
2017-08-18T09:37:29.672Z,0.50
2017-08-18T09:39:58.772Z,0.90
2017-08-18T09:42:27.101Z,1.23
2017-08-18T09:44:55.432Z,0.50
2017-08-18T09:47:23.764Z,0.60
2017-08-18T09:50:04.001Z,2.00
2017-08-18T09:52:44.156Z,0.60
2017-08-18T09:55:24.516Z,0.50
2017-08-18T09:58:04.713Z,0.50
2017-08-18T10:00:47.912Z,0.50
2017-08-18T10:03:16.756Z,0.60
2017-08-18T10:05:44.800Z,0.60
2017-08-18T10:08:13.795Z,0.50
2017-08-18T10:10:42.809Z,0.50
2017-08-18T10:13:11.634Z,0.97
2017-08-18T10:15:39.706Z,0.50
2017-08-18T10:18:08.644Z,0.57
2017-08-18T10:20:36.720Z,5.90
2017-08-18T10:23:04.802Z,0.40
2017-08-18T10:25:33.426Z,0.60
2017-08-18T10:28:01.696Z,0.60
2017-08-18T10:30:29.743Z,0.60
2017-08-18T10:32:57.830Z,1.47
2017-08-18T10:35:25.885Z,0.50
2017-08-18T10:37:53.989Z,0.50
2017-08-18T10:40:22.029Z,1.63
2017-08-18T10:42:50.147Z,3.93
2017-08-18T10:45:18.208Z,0.83
2017-08-18T10:47:46.284Z,0.60
2017-08-18T10:50:14.336Z,2.60
2017-08-18T10:52:42.741Z,1.00
2017-08-18T10:55:10.961Z,0.70
2017-08-18T10:57:39.004Z,0.60
2017-08-18T11:00:07.385Z,0.60
2017-08-18T11:02:35.976Z,0.90
2017-08-18T11:05:04.052Z,1.00
2017-08-18T11:07:32.116Z,1.17
2017-08-18T11:10:00.969Z,0.67
2017-08-18T11:12:29.072Z,2.93
2017-08-18T11:14:58.648Z,0.87
2017-08-18T11:17:26.790Z,0.60
2017-08-18T11:19:54.864Z,2.83
2017-08-18T11:22:22.965Z,0.60
2017-08-18T11:24:51.814Z,0.67
2017-08-18T11:27:19.904Z,1.37
2017-08-18T11:29:47.984Z,0.87
2017-08-18T11:32:17.064Z,0.93
2017-08-18T11:34:45.147Z,1.53
2017-08-18T11:37:13.404Z,0.70
2017-08-18T11:39:41.754Z,0.70
2017-08-18T11:42:09.988Z,0.80
2017-08-18T11:44:38.092Z,2.30
2017-08-18T11:47:07.122Z,4.63
2017-08-18T11:49:35.246Z,0.90
2017-08-18T11:52:03.599Z,1.53
2017-08-18T11:54:31.812Z,2.37
2017-08-18T11:56:59.936Z,1.07
2017-08-18T11:59:28.912Z,3.73
2017-08-18T12:01:57.016Z,1.00
2017-08-18T12:04:26.125Z,2.53
2017-08-18T12:06:55.778Z,0.87
2017-08-18T12:09:23.966Z,0.80
2017-08-18T12:11:52.192Z,3.77
2017-08-18T12:14:20.424Z,0.80
2017-08-18T12:16:48.939Z,1.00
2017-08-18T12:19:17.116Z,1.00
2017-08-18T12:21:45.536Z,16.63
2017-08-18T12:24:13.672Z,1.10
2017-08-18T12:26:41.752Z,1.60
2017-08-18T12:29:09.835Z,1.23
2017-08-18T12:31:37.893Z,1.43
2017-08-18T12:34:06.001Z,1.77
2017-08-18T12:36:34.856Z,1.00
2017-08-18T12:39:02.935Z,1.10
2017-08-18T12:41:31.017Z,4.70
2017-08-18T12:43:59.134Z,1.47
2017-08-18T12:46:28.007Z,2.73
2017-08-18T12:48:56.065Z,2.73
2017-08-18T12:51:24.157Z,1.10
2017-08-18T12:53:53.575Z,1.40
2017-08-18T12:56:21.736Z,1.00
2017-08-18T12:58:49.785Z,3.43
2017-08-18T13:01:17.874Z,5.13
2017-08-18T13:03:45.930Z,1.23
2017-08-18T13:06:14.016Z,0.90
2017-08-18T13:08:42.916Z,1.63
2017-08-18T13:11:10.972Z,1.00
2017-08-18T13:13:39.024Z,3.50
2017-08-18T13:16:07.588Z,2.80
2017-08-18T13:18:35.660Z,2.93
2017-08-18T13:21:03.920Z,1.27
2017-08-18T13:23:31.987Z,1.43
2017-08-18T13:26:00.806Z,6.93
2017-08-18T13:28:28.883Z,6.10
2017-08-18T13:30:56.980Z,1.73
2017-08-18T13:33:25.023Z,2.03
2017-08-18T13:35:53.268Z,1.20
2017-08-18T13:38:21.402Z,1.60
2017-08-18T13:40:49.482Z,3.90
2017-08-18T13:43:17.558Z,7.07
2017-08-18T13:45:52.052Z,2.03
2017-08-18T13:48:20.132Z,4.43
2017-08-18T13:50:48.187Z,8.07
2017-08-18T13:53:17.033Z,3.70
2017-08-18T13:55:45.111Z,7.63
2017-08-18T13:58:13.171Z,1.77
2017-08-18T14:00:41.237Z,1.20
2017-08-18T14:03:10.181Z,1.83
2017-08-18T14:05:38.228Z,1.77
2017-08-18T14:08:07.164Z,2.13
2017-08-18T14:10:35.219Z,1.47
2017-08-18T14:13:04.036Z,0.80
2017-08-18T14:15:32.111Z,1.00
2017-08-18T14:18:00.164Z,0.80
2017-08-18T14:20:29.082Z,0.90
2017-08-18T14:22:57.190Z,1.13
2017-08-18T14:25:41.151Z,1.70
2017-08-18T14:28:09.474Z,1.73
2017-08-18T14:30:38.564Z,0.87
2017-08-18T14:33:06.883Z,3.47
2017-08-18T14:35:35.941Z,4.83
2017-08-18T14:38:04.640Z,3.17
2017-08-18T14:40:32.970Z,0.90
2017-08-18T14:43:02.158Z,0.93
2017-08-18T14:45:30.444Z,0.97
2017-08-18T14:47:58.840Z,1.30
2017-08-18T14:50:27.176Z,1.20
2017-08-18T14:52:55.516Z,1.17
2017-08-18T14:55:23.837Z,1.47
2017-08-18T14:57:52.212Z,0.93
2017-08-18T15:00:21.288Z,2.70
2017-08-18T15:02:49.651Z,1.20
2017-08-18T15:05:17.947Z,1.27
2017-08-18T15:07:46.245Z,1.77
2017-08-18T15:10:14.563Z,1.73
2017-08-18T15:12:42.888Z,1.53
2017-08-18T15:15:11.189Z,3.10
2017-08-18T15:17:39.512Z,1.40
2017-08-18T15:20:07.809Z,2.50
2017-08-18T15:22:36.135Z,1.47
2017-08-18T15:25:05.228Z,3.03
2017-08-18T15:27:34.286Z,0.97
2017-08-18T15:30:02.580Z,1.40
2017-08-18T15:32:30.903Z,2.00
2017-08-18T15:34:59.569Z,1.40
2017-08-18T15:37:27.889Z,1.47
2017-08-18T15:39:56.177Z,1.93
2017-08-18T15:42:24.508Z,5.57
2017-08-18T15:44:52.804Z,2.23
2017-08-18T15:47:21.151Z,1.53
2017-08-18T15:49:49.500Z,1.73
2017-08-18T15:52:17.788Z,1.70
2017-08-18T15:54:46.215Z,4.00
2017-08-18T15:57:14.595Z,2.80
2017-08-18T15:59:42.895Z,2.83
2017-08-18T16:02:11.237Z,1.83
2017-08-18T16:04:39.581Z,2.20
2017-08-18T16:07:07.965Z,8.13
2017-08-18T16:09:36.364Z,5.30
2017-08-18T16:12:04.652Z,1.83
2017-08-18T16:14:32.991Z,2.40
2017-08-18T16:17:01.284Z,1.60
2017-08-18T16:19:29.585Z,1.77
2017-08-18T16:21:57.901Z,4.20
2017-08-18T16:24:26.295Z,6.20
2017-08-18T16:26:54.611Z,2.80
2017-08-18T16:29:22.943Z,2.50
2017-08-18T16:31:51.265Z,4.83
2017-08-18T16:34:19.588Z,3.00
2017-08-18T16:36:47.886Z,2.80
2017-08-18T16:39:46.206Z,4.50
2017-08-18T16:42:14.500Z,3.43
2017-08-18T16:44:42.821Z,3.97
2017-08-18T16:47:11.151Z,5.03
2017-08-18T16:49:39.436Z,4.03
2017-08-18T16:52:08.537Z,4.33
2017-08-18T16:54:36.857Z,4.83
2017-08-18T16:57:05.161Z,5.10
2017-08-18T16:59:33.485Z,3.63
2017-08-18T17:02:01.833Z,4.07
2017-08-18T17:04:30.115Z,3.50
2017-08-18T17:06:58.435Z,4.60
2017-08-18T17:09:26.755Z,3.40
2017-08-18T17:11:55.052Z,8.13
2017-08-18T17:14:23.385Z,4.53
2017-08-18T17:16:51.671Z,5.80
2017-08-18T17:19:19.992Z,6.17
2017-08-18T17:21:48.739Z,10.20
2017-08-18T17:24:17.069Z,3.70
2017-08-18T17:26:45.961Z,10.80
2017-08-18T17:29:14.284Z,4.33
2017-08-18T17:31:42.575Z,3.83
2017-08-18T17:34:10.905Z,3.43
2017-08-18T17:36:39.192Z,6.03
2017-08-18T17:39:07.528Z,5.97
2017-08-18T17:41:36.516Z,4.83
2017-08-18T17:44:04.828Z,4.23
2017-08-18T17:46:34.146Z,3.97
2017-08-18T17:49:02.548Z,4.77
2017-08-18T17:51:30.924Z,4.50
2017-08-18T17:53:59.316Z,6.33
2017-08-18T17:56:28.436Z,5.67
2017-08-18T17:58:56.778Z,8.37
2017-08-18T18:01:25.093Z,11.13
2017-08-18T18:03:53.422Z,15.27
2017-08-18T18:06:21.737Z,13.17
2017-08-18T18:08:50.161Z,11.80
2017-08-18T18:11:18.613Z,14.43
2017-08-18T18:13:47.082Z,13.33
2017-08-18T18:16:39.131Z,17.60
2017-08-18T18:22:08.824Z,17.23
2017-08-18T18:24:37.185Z,20.50
2017-08-18T18:35:44.587Z,20.43
2017-08-18T18:38:12.880Z,20.50
2017-08-18T18:40:41.180Z,26.40
2017-08-18T18:43:09.520Z,30.10
2017-08-18T18:45:37.821Z,24.60
2017-08-18T18:48:06.157Z,22.17
2017-08-18T18:50:34.475Z,29.23
2017-08-18T18:53:02.817Z,24.90
2017-08-18T18:55:31.161Z,28.27
2017-08-18T18:57:59.466Z,29.47
2017-08-18T19:00:27.766Z,26.93
2017-08-18T19:02:56.092Z,28.10
2017-08-18T19:05:24.410Z,27.60
2017-08-18T19:07:52.736Z,26.23
2017-08-18T19:10:21.041Z,30.70
2017-08-18T19:12:49.780Z,31.00
2017-08-18T19:15:18.163Z,27.40
2017-08-18T19:17:46.468Z,28.83
2017-08-18T19:20:14.811Z,31.90
2017-08-18T19:22:43.143Z,33.07
2017-08-18T19:25:11.445Z,28.03
2017-08-18T19:27:39.780Z,30.20
2017-08-18T19:30:08.081Z,31.47
2017-08-18T19:32:36.391Z,34.57
2017-08-18T19:35:04.737Z,32.40
2017-08-18T19:37:33.036Z,37.13
2017-08-18T19:40:01.380Z,26.63
2017-08-18T19:42:29.765Z,27.37
2017-08-18T19:44:58.140Z,39.47
2017-08-18T19:47:26.584Z,32.70
2017-08-18T19:49:56.699Z,29.83
2017-08-18T19:52:25.032Z,27.57
2017-08-18T19:54:53.340Z,25.10
2017-08-18T19:57:23.964Z,31.43
2017-08-18T19:59:52.289Z,30.03
2017-08-18T20:02:20.589Z,30.70
2017-08-18T20:04:49.006Z,29.83
2017-08-18T20:07:17.317Z,31.33
2017-08-18T20:09:45.655Z,34.00
2017-08-18T20:12:13.967Z,38.20
2017-08-18T20:14:42.276Z,31.63
2017-08-18T20:17:10.626Z,38.30
2017-08-18T20:19:38.924Z,42.70
2017-08-18T20:22:07.251Z,44.23
2017-08-18T20:24:35.579Z,42.13
2017-08-18T20:27:03.886Z,43.00
2017-08-18T20:29:32.191Z,41.17
2017-08-18T20:32:00.521Z,47.50
2017-08-18T20:34:28.848Z,37.50
2017-08-18T20:36:57.171Z,37.83
2017-08-18T20:39:25.478Z,45.50
2017-08-18T20:41:53.882Z,40.30
2017-08-18T20:44:22.209Z,37.50
2017-08-18T20:46:50.540Z,32.00
2017-08-18T20:49:18.841Z,29.30
2017-08-18T20:51:47.493Z,25.50
2017-08-18T20:54:15.818Z,29.20
2017-08-18T20:56:44.149Z,28.50
2017-08-18T20:59:12.485Z,22.27
2017-08-18T21:01:40.813Z,24.97
2017-08-18T21:04:09.116Z,25.60
2017-08-18T21:06:38.624Z,23.77
2017-08-18T21:09:06.926Z,24.17
2017-08-18T21:11:35.236Z,19.03
2017-08-18T21:14:03.577Z,21.30
2017-08-18T21:16:31.932Z,18.13
2017-08-18T21:19:00.268Z,23.30
2017-08-18T21:21:28.564Z,20.50
2017-08-18T21:23:56.896Z,14.50
2017-08-18T21:26:25.193Z,14.80
2017-08-18T21:28:53.520Z,11.03
2017-08-18T21:31:21.825Z,12.13
2017-08-18T21:33:50.159Z,9.03
2017-08-18T21:36:18.463Z,8.80
2017-08-18T21:38:46.769Z,11.00
2017-08-18T21:41:15.096Z,8.17
2017-08-18T21:43:43.402Z,10.13
2017-08-18T21:46:11.741Z,6.00
2017-08-18T21:48:40.037Z,6.33
2017-08-18T21:51:08.364Z,4.60
2017-08-18T21:53:36.670Z,4.73
2017-08-18T21:56:04.964Z,4.40
2017-08-18T21:58:33.289Z,4.43
2017-08-18T22:01:01.908Z,4.20
2017-08-18T22:03:30.244Z,3.97
2017-08-18T22:05:58.536Z,4.27
2017-08-18T22:08:26.894Z,9.93
2017-08-18T22:10:55.180Z,5.27
2017-08-18T22:13:23.504Z,4.90
2017-08-18T22:15:51.795Z,6.43
2017-08-18T22:18:20.119Z,4.17
2017-08-18T22:20:48.412Z,3.30
2017-08-18T22:23:16.738Z,6.60
2017-08-18T22:25:45.033Z,4.73
2017-08-18T22:28:13.364Z,4.00
2017-08-18T22:30:41.656Z,3.63
2017-08-18T22:33:09.992Z,4.10
2017-08-18T22:35:38.319Z,5.40
2017-08-18T22:38:06.612Z,3.53
2017-08-18T22:40:34.927Z,7.20
2017-08-18T22:43:03.229Z,6.53
2017-08-18T22:45:31.520Z,3.43
2017-08-18T22:47:59.848Z,4.03
2017-08-18T22:50:28.147Z,9.53
2017-08-18T22:52:56.464Z,6.30
2017-08-18T22:55:24.764Z,13.00
2017-08-18T22:57:53.089Z,5.57
2017-08-18T23:00:21.385Z,8.67
2017-08-18T23:02:49.807Z,6.10
2017-08-18T23:05:18.141Z,8.00
2017-08-18T23:07:46.440Z,7.27
2017-08-18T23:10:14.831Z,8.10
2017-08-18T23:12:43.168Z,5.80
2017-08-18T23:15:11.513Z,5.10
2017-08-18T23:17:42.356Z,5.03
2017-08-18T23:20:10.709Z,10.50
2017-08-18T23:22:39.054Z,10.37
2017-08-18T23:25:07.376Z,12.43
2017-08-18T23:27:35.712Z,6.30
2017-08-18T23:30:04.058Z,8.60
2017-08-18T23:32:32.424Z,10.60
2017-08-18T23:35:00.972Z,12.30
2017-08-18T23:37:29.294Z,11.80
2017-08-18T23:39:57.631Z,9.67
2017-08-18T23:42:25.943Z,13.53
2017-08-18T23:44:54.282Z,11.53
2017-08-18T23:47:22.585Z,10.10
2017-08-18T23:49:50.897Z,28.93
2017-08-18T23:52:19.228Z,10.83
2017-08-18T23:54:47.582Z,13.23
2017-08-18T23:57:15.933Z,17.90
2017-08-18T23:59:45.031Z,19.33
